createdAt,value
2022-07-25T00:01:13.408Z,60.20
2022-07-25T00:04:15.997Z,60.50
2022-07-25T00:07:20.532Z,60.90
2022-07-25T00:10:22.541Z,60.80
2022-07-25T00:13:24.388Z,62.80
2022-07-25T00:16:26.254Z,64.00
2022-07-25T00:19:28.255Z,65.70
2022-07-25T00:22:30.193Z,67.50
2022-07-25T00:25:32.163Z,63.70
2022-07-25T00:28:34.001Z,61.40
2022-07-25T00:31:36.200Z,60.50
2022-07-25T00:34:38.805Z,61.30
2022-07-25T00:37:40.717Z,61.60
2022-07-25T00:40:42.547Z,62.90
2022-07-25T00:43:45.562Z,62.50
2022-07-25T00:46:47.520Z,62.70
2022-07-25T00:49:49.503Z,62.00
2022-07-25T00:52:51.960Z,62.20
2022-07-25T00:55:54.594Z,62.40
2022-07-25T00:58:56.495Z,63.00
2022-07-25T01:01:58.491Z,62.10
2022-07-25T01:05:00.433Z,62.70
2022-07-25T01:08:02.860Z,63.30
2022-07-25T01:11:04.781Z,62.50
2022-07-25T01:14:07.239Z,63.00
2022-07-25T01:17:09.402Z,62.70
2022-07-25T01:20:13.655Z,63.60
2022-07-25T01:23:15.504Z,64.00
2022-07-25T01:26:17.401Z,63.80
2022-07-25T01:29:19.312Z,63.70
2022-07-25T01:32:21.175Z,63.60
2022-07-25T01:35:23.461Z,63.60
2022-07-25T01:38:25.274Z,64.20
2022-07-25T01:41:27.695Z,64.50
2022-07-25T01:44:29.576Z,65.40
2022-07-25T01:47:31.487Z,66.50
2022-07-25T01:50:33.372Z,66.10
2022-07-25T01:53:35.250Z,65.60
2022-07-25T01:56:42.788Z,65.80
2022-07-25T01:59:44.862Z,65.40
2022-07-25T02:02:46.704Z,65.60
2022-07-25T02:05:51.045Z,66.20
2022-07-25T02:08:52.899Z,64.90
2022-07-25T02:11:54.843Z,65.60
2022-07-25T02:14:56.752Z,65.30
2022-07-25T02:17:58.737Z,65.20
2022-07-25T02:21:00.670Z,63.70
2022-07-25T02:24:03.162Z,64.00
2022-07-25T02:27:05.719Z,64.70
2022-07-25T02:30:07.980Z,64.40
2022-07-25T02:33:09.894Z,64.90
2022-07-25T02:36:11.826Z,65.20
2022-07-25T02:39:13.827Z,64.90
2022-07-25T02:42:15.828Z,65.00
2022-07-25T02:45:17.751Z,65.00
2022-07-25T02:48:19.655Z,64.80
2022-07-25T02:51:21.540Z,65.60
2022-07-25T02:54:26.485Z,66.30
2022-07-25T02:57:28.349Z,66.40
2022-07-25T03:00:30.366Z,67.10
2022-07-25T03:03:32.309Z,67.10
2022-07-25T03:06:34.291Z,66.50
2022-07-25T03:09:37.101Z,67.90
2022-07-25T03:12:39.321Z,67.30
2022-07-25T03:15:41.167Z,67.60
2022-07-25T03:18:44.554Z,66.20
2022-07-25T03:21:46.813Z,65.80
2022-07-25T03:24:48.675Z,66.70
2022-07-25T03:27:50.853Z,66.80
2022-07-25T03:30:53.335Z,66.50
2022-07-25T03:33:55.227Z,66.50
2022-07-25T03:36:57.055Z,66.80
2022-07-25T03:39:58.950Z,67.60
2022-07-25T03:43:00.874Z,67.80
2022-07-25T03:46:02.787Z,67.70
2022-07-25T03:49:04.849Z,66.80
2022-07-25T03:52:06.772Z,67.80
2022-07-25T03:55:09.890Z,67.90
2022-07-25T03:58:11.750Z,67.10
2022-07-25T04:01:13.811Z,67.40
2022-07-25T04:04:16.170Z,67.50
2022-07-25T04:07:18.130Z,67.10
2022-07-25T04:10:20.007Z,67.20
2022-07-25T04:13:21.858Z,66.10
2022-07-25T04:16:23.782Z,66.70
2022-07-25T04:19:27.713Z,68.50
2022-07-25T04:22:30.161Z,69.10
2022-07-25T04:25:32.028Z,68.50
2022-07-25T04:28:34.111Z,67.90
2022-07-25T04:31:36.027Z,67.90
2022-07-25T04:34:37.868Z,68.10
2022-07-25T04:37:39.659Z,67.30
2022-07-25T04:40:41.599Z,66.50
2022-07-25T04:43:48.269Z,66.20
2022-07-25T04:46:50.707Z,66.10
2022-07-25T04:49:52.615Z,66.30
2022-07-25T04:52:54.504Z,67.10
2022-07-25T04:55:56.387Z,67.30
2022-07-25T04:59:03.146Z,66.70
2022-07-25T05:02:08.607Z,66.40
2022-07-25T05:05:20.941Z,66.50
2022-07-25T05:08:23.698Z,66.20
2022-07-25T05:11:25.526Z,65.80
2022-07-25T05:14:27.373Z,66.10
2022-07-25T05:17:29.175Z,65.80
2022-07-25T05:20:31.042Z,64.30
2022-07-25T05:23:33.157Z,63.50
2022-07-25T05:26:35.145Z,63.40
2022-07-25T05:29:37.153Z,63.00
2022-07-25T11:03:24.412Z,34.50
2022-07-25T11:06:44.207Z,33.90
2022-07-25T11:09:55.840Z,33.90
2022-07-25T11:12:57.669Z,34.30
2022-07-25T11:15:59.506Z,35.20
2022-07-25T11:19:01.303Z,35.50
2022-07-25T11:22:03.603Z,35.50
2022-07-25T11:25:12.919Z,35.50
2022-07-25T11:28:14.717Z,34.50
2022-07-25T11:31:17.234Z,34.30
2022-07-25T11:34:21.446Z,35.10
2022-07-25T11:37:23.268Z,35.50
2022-07-25T11:40:25.839Z,34.60
2022-07-25T11:43:27.784Z,35.10
2022-07-25T11:46:29.674Z,34.70
2022-07-25T11:49:31.600Z,34.10
2022-07-25T11:52:38.029Z,33.10
2022-07-25T11:55:40.266Z,32.90
2022-07-25T11:58:42.106Z,34.40
2022-07-25T12:01:43.924Z,34.10
2022-07-25T12:04:53.058Z,33.10
2022-07-25T12:07:55.127Z,32.30
2022-07-25T12:10:56.920Z,33.00
2022-07-25T12:14:05.201Z,32.10
2022-07-25T12:17:07.102Z,33.10
2022-07-25T12:20:16.808Z,34.00
2022-07-25T12:23:18.739Z,34.90
2022-07-25T12:26:20.650Z,33.40
2022-07-25T12:29:22.528Z,34.40
2022-07-25T12:32:24.484Z,34.50
2022-07-25T12:35:26.730Z,34.00
2022-07-25T12:38:28.890Z,34.00
2022-07-25T12:41:30.658Z,32.60
2022-07-25T12:44:32.513Z,33.90
2022-07-25T12:47:34.415Z,33.30
2022-07-25T12:50:36.267Z,34.00
2022-07-25T12:53:42.217Z,34.10
2022-07-25T12:56:44.549Z,34.50
2022-07-25T12:59:46.821Z,34.10
2022-07-25T13:02:49.042Z,34.60
2022-07-25T13:05:50.962Z,34.50
2022-07-25T13:08:52.980Z,34.80
2022-07-25T13:11:55.867Z,36.50
2022-07-25T13:14:58.743Z,35.20
2022-07-25T13:18:02.085Z,35.10
2022-07-25T13:21:04.134Z,36.90
2022-07-25T13:24:06.779Z,36.30
2022-07-25T13:27:08.698Z,36.80
2022-07-25T13:30:10.770Z,35.70
2022-07-25T13:33:12.777Z,35.90
2022-07-25T13:36:14.911Z,36.20
2022-07-25T13:39:17.065Z,35.40
2022-07-25T13:42:18.850Z,35.90
2022-07-25T13:45:20.633Z,36.30
2022-07-25T13:48:31.454Z,36.80
2022-07-25T13:51:33.362Z,36.50
2022-07-25T13:54:35.194Z,36.40
2022-07-25T13:57:37.216Z,35.90
2022-07-25T14:00:39.330Z,35.90
2022-07-25T14:03:41.166Z,35.60
2022-07-25T14:06:43.130Z,34.70
2022-07-25T14:09:47.239Z,36.50
2022-07-25T14:12:49.077Z,35.90
2022-07-25T14:15:50.831Z,37.60
2022-07-25T14:18:52.717Z,37.00
2022-07-25T14:21:55.004Z,37.20
2022-07-25T14:24:56.781Z,36.60
2022-07-25T14:27:59.469Z,36.00
2022-07-25T14:31:01.267Z,36.60
2022-07-25T14:34:03.258Z,36.60
2022-07-25T14:37:05.320Z,36.20
2022-07-25T14:40:07.598Z,36.80
2022-07-25T14:43:09.448Z,36.40
2022-07-25T14:46:11.455Z,34.80
2022-07-25T14:49:14.017Z,35.00
2022-07-25T14:52:16.487Z,36.20
2022-07-25T14:55:18.293Z,36.20
2022-07-25T14:58:20.124Z,35.00
2022-07-25T15:01:21.984Z,35.20
2022-07-25T15:04:24.508Z,35.70
2022-07-25T15:07:26.311Z,35.80
2022-07-25T15:10:28.108Z,35.50
2022-07-25T15:13:31.606Z,34.90
2022-07-25T15:16:34.269Z,33.80
2022-07-25T15:19:36.085Z,34.10
2022-07-25T15:22:37.991Z,34.10
2022-07-25T15:29:01.824Z,34.50
2022-07-25T15:32:03.724Z,35.00
2022-07-25T15:35:06.116Z,34.70
2022-07-25T15:38:07.927Z,34.90
2022-07-25T15:41:09.934Z,35.00
2022-07-25T15:44:11.734Z,35.20
2022-07-25T15:47:13.831Z,34.60
2022-07-25T15:50:15.703Z,35.60
2022-07-25T15:53:17.510Z,35.10
2022-07-25T15:56:19.330Z,35.40
2022-07-25T15:59:21.201Z,36.60
2022-07-25T16:02:23.461Z,35.70
2022-07-25T16:05:25.348Z,36.70
2022-07-25T16:08:27.226Z,36.00
2022-07-25T16:11:29.212Z,36.50
2022-07-25T16:14:31.047Z,38.30
2022-07-25T16:17:32.817Z,41.40
2022-07-25T16:20:34.787Z,38.70
2022-07-25T16:23:40.561Z,39.00
2022-07-25T16:26:45.479Z,37.20
2022-07-25T16:29:47.546Z,38.80
2022-07-25T16:32:49.355Z,40.70
2022-07-25T16:35:51.094Z,39.10
2022-07-25T16:38:52.967Z,36.40
2022-07-25T16:41:54.800Z,37.20
2022-07-25T16:45:03.202Z,44.90
2022-07-25T16:48:08.190Z,38.70
2022-07-25T16:51:09.966Z,39.20
2022-07-25T16:54:12.500Z,41.60
2022-07-25T16:57:14.282Z,41.60
2022-07-25T17:00:16.149Z,39.30
2022-07-25T17:03:17.894Z,43.00
2022-07-25T17:06:19.772Z,39.40
2022-07-25T17:09:21.643Z,42.10
2022-07-25T17:12:23.500Z,40.50
2022-07-25T17:15:25.455Z,43.20
2022-07-25T17:18:27.483Z,40.60
2022-07-25T17:21:29.310Z,43.10
2022-07-25T17:24:31.162Z,43.70
2022-07-25T17:27:33.019Z,41.50
2022-07-25T17:30:36.729Z,43.60
2022-07-25T17:33:38.833Z,45.00
2022-07-25T17:36:43.575Z,44.00
2022-07-25T17:39:45.474Z,44.20
2022-07-25T17:42:47.232Z,39.20
2022-07-25T17:45:49.001Z,43.40
2022-07-25T17:48:51.167Z,42.60
2022-07-25T17:51:53.144Z,40.50
2022-07-25T17:54:55.010Z,44.30
2022-07-25T17:57:56.984Z,41.10
2022-07-25T18:01:01.332Z,40.80
2022-07-25T18:04:06.963Z,41.20
2022-07-25T18:07:14.740Z,41.70
2022-07-25T18:10:17.409Z,41.00
2022-07-25T18:13:19.384Z,43.20
2022-07-25T18:16:24.336Z,45.20
2022-07-25T18:19:28.756Z,41.20
2022-07-25T18:22:30.696Z,41.30
2022-07-25T18:25:35.482Z,41.90
2022-07-25T18:28:46.119Z,40.30
2022-07-25T18:31:53.527Z,41.00
2022-07-25T18:34:58.193Z,41.60
2022-07-25T18:38:08.331Z,40.30
2022-07-25T18:41:30.646Z,40.80
2022-07-25T18:44:41.551Z,41.30
2022-07-25T18:47:43.958Z,41.10
2022-07-25T18:50:52.227Z,41.00
2022-07-25T18:53:56.810Z,41.30
2022-07-25T18:57:04.168Z,40.30
2022-07-25T19:00:16.888Z,40.20
2022-07-25T19:03:46.287Z,40.80
2022-07-25T19:07:02.903Z,39.70
2022-07-25T19:13:53.617Z,41.90
2022-07-25T19:17:02.736Z,40.10
2022-07-25T19:23:50.923Z,40.50
2022-07-25T19:27:08.665Z,41.80
2022-07-25T19:30:31.554Z,42.80
2022-07-25T19:37:39.270Z,41.50
2022-07-25T19:40:48.377Z,41.60
2022-07-25T19:43:54.767Z,42.00
2022-07-25T19:46:57.305Z,42.40
2022-07-25T19:49:59.404Z,41.40
2022-07-25T19:53:02.107Z,40.80
2022-07-25T19:56:04.454Z,41.00
2022-07-25T19:59:06.465Z,43.20
2022-07-25T20:02:08.666Z,44.90
2022-07-25T20:05:11.147Z,44.50
2022-07-25T20:08:12.972Z,44.70
2022-07-25T20:11:15.362Z,45.60
2022-07-25T20:14:17.423Z,44.40
2022-07-25T20:17:19.966Z,44.30
2022-07-25T20:20:22.039Z,45.50
2022-07-25T20:23:24.465Z,45.40
2022-07-25T20:26:26.496Z,45.90
2022-07-25T20:29:28.455Z,45.50
2022-07-25T20:32:30.549Z,46.60
2022-07-25T20:35:34.203Z,47.20
2022-07-25T20:38:36.249Z,46.40
2022-07-25T20:41:38.537Z,45.40
2022-07-25T20:44:40.756Z,45.80
2022-07-25T20:47:42.793Z,46.70
2022-07-25T20:50:44.802Z,47.60
2022-07-25T20:53:51.677Z,45.80
2022-07-25T20:56:55.149Z,48.80
2022-07-25T20:59:59.810Z,47.60
2022-07-25T21:03:01.846Z,48.20
2022-07-25T21:06:03.993Z,47.40
2022-07-25T21:09:07.673Z,48.40
2022-07-25T21:12:10.218Z,49.50
2022-07-25T21:15:12.494Z,47.20
2022-07-25T21:18:14.431Z,46.80
2022-07-25T21:21:16.954Z,48.50
2022-07-25T21:24:18.932Z,50.00
2022-07-25T21:27:23.559Z,50.40
2022-07-25T21:30:25.405Z,49.60
2022-07-25T21:33:27.710Z,49.60
2022-07-25T21:36:29.959Z,48.20
2022-07-25T21:39:32.241Z,49.10
2022-07-25T21:42:35.106Z,49.80
2022-07-25T21:45:37.314Z,49.70
2022-07-25T21:48:39.525Z,50.90
2022-07-25T21:51:46.376Z,49.50
2022-07-25T21:54:48.526Z,49.50
2022-07-25T21:57:51.498Z,49.80
2022-07-25T22:00:53.741Z,51.70
2022-07-25T22:03:55.993Z,51.00
2022-07-25T22:06:58.091Z,51.10
2022-07-25T22:09:59.961Z,51.10
2022-07-25T22:13:01.815Z,50.30
2022-07-25T22:16:03.977Z,49.70
2022-07-25T22:19:06.445Z,49.80
2022-07-25T22:22:08.684Z,49.50
2022-07-25T22:25:10.529Z,50.00
2022-07-25T22:28:14.412Z,49.30
2022-07-25T22:31:16.867Z,49.60
2022-07-25T22:34:18.757Z,50.00
2022-07-25T22:37:20.529Z,50.20
2022-07-25T22:40:32.699Z,50.10
2022-07-25T22:43:56.746Z,50.10
2022-07-25T22:46:56.392Z,50.10
2022-07-25T22:49:58.150Z,50.50
2022-07-25T22:53:00.102Z,50.50
2022-07-25T22:56:01.886Z,49.60
2022-07-25T22:59:03.860Z,49.90
2022-07-25T23:02:05.773Z,49.90
2022-07-25T23:05:08.242Z,50.60
2022-07-25T23:08:10.017Z,50.40
2022-07-25T23:11:11.819Z,49.20
2022-07-25T23:14:13.609Z,48.80
2022-07-25T23:17:15.478Z,49.20
2022-07-25T23:20:17.316Z,50.50
2022-07-25T23:23:19.150Z,49.30
2022-07-25T23:26:21.232Z,49.70
2022-07-25T23:29:23.011Z,50.00
2022-07-25T23:32:24.764Z,49.20
2022-07-25T23:35:26.604Z,50.10
2022-07-25T23:38:28.389Z,49.30
2022-07-25T23:41:30.198Z,48.90
2022-07-25T23:44:31.987Z,49.40
2022-07-25T23:47:39.048Z,51.30
2022-07-25T23:50:41.620Z,51.70
2022-07-25T23:53:43.487Z,51.00
2022-07-25T23:56:45.264Z,50.70
2022-07-25T23:59:47.090Z,51.00
